createdAt,value
2019-02-10T00:00:02.595Z,933.4
2019-02-10T00:01:02.544Z,933.5
2019-02-10T00:02:02.424Z,933.3
2019-02-10T00:03:02.729Z,933.5
2019-02-10T00:04:02.622Z,933.5
2019-02-10T00:05:02.544Z,933.3
2019-02-10T00:06:02.446Z,933.5
2019-02-10T00:07:02.342Z,933.4
2019-02-10T00:08:02.222Z,933.5
2019-02-10T00:09:02.104Z,933.4
2019-02-10T00:10:02.012Z,933.5
2019-02-10T00:11:01.918Z,933.4
2019-02-10T00:12:01.816Z,933.5
2019-02-10T00:13:02.128Z,933.4
2019-02-10T00:14:01.864Z,933.4
2019-02-10T00:15:01.601Z,933.2
2019-02-10T00:16:01.340Z,933.3
2019-02-10T00:17:01.088Z,933.3
2019-02-10T00:18:00.821Z,933.3
2019-02-10T00:19:00.538Z,933.2
2019-02-10T00:20:00.333Z,933.2
2019-02-10T00:21:00.054Z,933.2
2019-02-10T00:21:59.774Z,933.2
2019-02-10T00:23:00.088Z,933.2
2019-02-10T00:24:00.015Z,933.1
2019-02-10T00:24:59.898Z,933.1
2019-02-10T00:25:59.784Z,933.2
2019-02-10T00:26:59.669Z,933.1
2019-02-10T00:27:59.570Z,933.1
2019-02-10T00:28:59.448Z,933.1
2019-02-10T00:29:59.406Z,932.9
2019-02-10T00:30:59.285Z,933
2019-02-10T00:31:59.170Z,933.1
2019-02-10T00:32:59.460Z,932.9
2019-02-10T00:33:59.364Z,932.8
2019-02-10T00:34:59.302Z,933
2019-02-10T00:35:59.182Z,932.8
2019-02-10T00:36:59.072Z,932.9
2019-02-10T00:37:58.944Z,933
2019-02-10T00:38:58.844Z,932.9
2019-02-10T00:39:58.734Z,933
2019-02-10T00:40:58.619Z,932.8
2019-02-10T00:41:58.528Z,933
2019-02-10T00:42:58.814Z,932.8
2019-02-10T00:43:58.704Z,932.9
2019-02-10T00:44:58.658Z,933
2019-02-10T00:45:58.563Z,932.9
2019-02-10T00:46:58.464Z,933
2019-02-10T00:47:58.368Z,932.9
2019-02-10T00:48:58.268Z,932.9
2019-02-10T00:49:58.139Z,932.8
2019-02-10T00:50:58.028Z,933
2019-02-10T00:51:57.956Z,932.7
2019-02-10T00:52:58.266Z,932.6
2019-02-10T00:53:58.150Z,932.8
2019-02-10T00:54:58.055Z,932.8
2019-02-10T00:55:57.930Z,932.8
2019-02-10T00:56:57.810Z,932.8
2019-02-10T00:57:57.686Z,932.5
2019-02-10T00:58:57.571Z,932.8
2019-02-10T00:59:57.459Z,932.7
2019-02-10T01:00:57.355Z,932.7
2019-02-10T01:01:57.249Z,932.7
2019-02-10T01:02:57.541Z,932.8
2019-02-10T01:03:57.439Z,932.7
2019-02-10T01:04:57.317Z,932.6
2019-02-10T01:05:57.222Z,932.6
2019-02-10T01:06:57.130Z,932.6
2019-02-10T01:07:57.001Z,932.7
2019-02-10T01:08:56.886Z,932.8
2019-02-10T01:09:56.780Z,932.7
2019-02-10T01:10:56.718Z,932.7
2019-02-10T01:11:56.723Z,932.7
2019-02-10T01:12:57.048Z,932.7
2019-02-10T01:13:56.942Z,932.7
2019-02-10T01:14:56.829Z,932.7
2019-02-10T01:15:56.709Z,932.6
2019-02-10T01:16:56.611Z,932.6
2019-02-10T01:17:56.495Z,932.2
2019-02-10T01:18:56.369Z,932.6
2019-02-10T01:19:56.245Z,932.6
2019-02-10T01:20:56.143Z,932.6
2019-02-10T01:21:56.059Z,932.7
2019-02-10T01:22:56.360Z,932.5
2019-02-10T01:23:56.248Z,932.5
2019-02-10T01:24:56.123Z,932.4
2019-02-10T01:25:55.994Z,932.5
2019-02-10T01:26:55.903Z,932.5
2019-02-10T01:27:55.783Z,932.6
2019-02-10T01:28:55.653Z,931.9
2019-02-10T01:29:55.543Z,932.4
2019-02-10T01:30:55.457Z,931.8
2019-02-10T01:31:55.350Z,932.4
2019-02-10T01:32:55.642Z,932.5
2019-02-10T01:33:55.523Z,932.4
2019-02-10T01:34:55.409Z,932.4
2019-02-10T01:35:55.304Z,932.4
2019-02-10T01:36:55.204Z,931.9
2019-02-10T01:37:55.089Z,932.4
2019-02-10T01:38:54.978Z,932.4
2019-02-10T01:39:55.284Z,932.5
2019-02-10T01:40:55.177Z,932.4
2019-02-10T01:41:55.073Z,932.4
2019-02-10T01:42:55.365Z,932.4
2019-02-10T01:43:55.258Z,932.4
2019-02-10T01:44:55.144Z,932.4
2019-02-10T01:45:55.065Z,932.4
2019-02-10T01:46:54.943Z,932.3
2019-02-10T01:47:54.829Z,932.4
2019-02-10T01:48:54.703Z,932.4
2019-02-10T01:49:54.610Z,932.4
2019-02-10T01:50:54.477Z,932.4
2019-02-10T01:51:54.373Z,932.4
2019-02-10T01:52:54.683Z,932.2
2019-02-10T01:53:54.657Z,932.4
2019-02-10T01:54:54.544Z,932.3
2019-02-10T01:55:54.435Z,932.2
2019-02-10T01:56:54.329Z,932.2
2019-02-10T01:57:54.211Z,932.2
2019-02-10T01:58:54.111Z,932.2
2019-02-10T01:59:54.024Z,932.3
2019-02-10T02:00:53.897Z,932
2019-02-10T02:01:53.842Z,932.2
2019-02-10T02:02:54.197Z,932.2
2019-02-10T02:03:54.083Z,932.1
2019-02-10T02:04:53.987Z,932.2
2019-02-10T02:05:53.889Z,932.2
2019-02-10T02:06:58.961Z,931.9
2019-02-10T02:08:00.664Z,932
2019-02-10T02:09:00.563Z,932
2019-02-10T02:10:00.563Z,932
2019-02-10T02:11:00.442Z,932
2019-02-10T02:12:00.347Z,932.1
2019-02-10T02:13:00.649Z,932
2019-02-10T02:14:00.585Z,932
2019-02-10T02:15:00.600Z,932.1
2019-02-10T02:16:00.543Z,932.1
2019-02-10T02:17:00.443Z,932.1
2019-02-10T02:18:00.180Z,932
2019-02-10T02:18:59.902Z,932
2019-02-10T02:19:59.625Z,932
2019-02-10T02:20:59.526Z,932
2019-02-10T02:21:59.472Z,931.8
2019-02-10T02:22:59.778Z,931.9
2019-02-10T02:23:59.667Z,932
2019-02-10T02:24:59.557Z,932
2019-02-10T02:25:59.453Z,931.9
2019-02-10T02:26:59.380Z,931.9
2019-02-10T02:27:59.255Z,931.9
2019-02-10T02:28:59.147Z,931.9
2019-02-10T02:29:59.041Z,931.8
2019-02-10T02:30:58.961Z,931.9
2019-02-10T02:31:58.865Z,931.8
2019-02-10T02:32:59.195Z,931.8
2019-02-10T02:33:59.119Z,931.8
2019-02-10T02:34:59.007Z,931.8
2019-02-10T02:35:58.935Z,931.9
2019-02-10T02:37:09.059Z,931.8
2019-02-10T02:38:09.006Z,931.6
2019-02-10T02:39:08.784Z,931.7
2019-02-10T02:40:08.525Z,931.7
2019-02-10T02:41:08.258Z,931.7
2019-02-10T02:42:07.998Z,931.6
2019-02-10T02:43:08.323Z,931.8
2019-02-10T02:44:08.047Z,931.8
2019-02-10T02:45:08.790Z,931.7
2019-02-10T02:46:08.713Z,931.7
2019-02-10T02:47:08.632Z,931.7
2019-02-10T02:48:08.415Z,931.7
2019-02-10T02:49:08.293Z,931.7
2019-02-10T02:50:08.037Z,931.7
2019-02-10T02:51:07.946Z,931.7
2019-02-10T02:52:07.839Z,931.7
2019-02-10T02:53:08.160Z,931.6
2019-02-10T02:54:08.071Z,931.7
2019-02-10T02:55:08.025Z,931.6
2019-02-10T02:56:07.912Z,931.6
2019-02-10T02:57:07.819Z,931.5
2019-02-10T02:58:07.751Z,931.5
2019-02-10T02:59:07.630Z,931.5
2019-02-10T03:00:07.514Z,931.4
2019-02-10T03:01:07.454Z,931.4
2019-02-10T03:02:07.394Z,931.5
2019-02-10T03:03:07.788Z,931.5
2019-02-10T03:04:07.685Z,931.4
2019-02-10T03:05:07.577Z,931.6
2019-02-10T03:06:07.484Z,931.4
2019-02-10T03:07:07.383Z,931.5
2019-02-10T03:08:07.293Z,931.4
2019-02-10T03:09:07.185Z,931.5
2019-02-10T03:10:07.133Z,931.4
2019-02-10T03:11:07.020Z,931.3
2019-02-10T03:12:06.904Z,931.4
2019-02-10T03:13:07.308Z,931.3
2019-02-10T03:14:07.198Z,931.3
2019-02-10T03:15:07.104Z,931.2
2019-02-10T03:16:07.102Z,931.2
2019-02-10T03:17:07.023Z,929.9
2019-02-10T03:18:06.948Z,931.3
2019-02-10T03:19:06.867Z,931.2
2019-02-10T03:20:06.798Z,931.3
2019-02-10T03:21:06.748Z,931.1
2019-02-10T03:22:06.658Z,931
2019-02-10T03:23:07.014Z,931
2019-02-10T03:24:06.912Z,931
2019-02-10T03:25:06.836Z,931.1
2019-02-10T03:26:06.728Z,931
2019-02-10T03:27:06.663Z,930.9
2019-02-10T03:28:06.580Z,929.4
2019-02-10T03:29:06.508Z,931
2019-02-10T03:30:06.472Z,930.9
2019-02-10T03:31:06.421Z,930.9
2019-02-10T03:32:06.476Z,930.8
2019-02-10T03:33:07.043Z,930.7
2019-02-10T03:34:07.012Z,930.7
2019-02-10T03:35:07.028Z,930.9
2019-02-10T03:36:06.928Z,930.9
2019-02-10T03:37:06.832Z,930.7
2019-02-10T03:38:06.732Z,930.6
2019-02-10T03:39:06.644Z,930.5
2019-02-10T03:40:06.547Z,930.3
2019-02-10T03:41:06.434Z,930.5
2019-02-10T03:42:06.331Z,930.5
2019-02-10T03:43:06.662Z,930.5
2019-02-10T03:44:06.661Z,930.5
2019-02-10T03:45:06.622Z,930.6
2019-02-10T03:46:06.526Z,930.6
2019-02-10T03:47:06.429Z,930.5
2019-02-10T03:48:06.328Z,930.4
2019-02-10T03:49:06.214Z,930.2
2019-02-10T03:50:06.122Z,930.2
2019-02-10T03:51:06.048Z,930.4
2019-02-10T03:52:05.981Z,930.3
2019-02-10T03:53:06.352Z,930.3
2019-02-10T03:54:06.252Z,930.4
2019-02-10T03:55:06.168Z,930.3
2019-02-10T03:56:06.051Z,930.3
2019-02-10T03:57:05.969Z,930.2
2019-02-10T03:58:05.940Z,930
2019-02-10T03:59:05.828Z,930.1
2019-02-10T04:00:05.721Z,930
2019-02-10T04:01:05.646Z,930
2019-02-10T04:02:05.553Z,929.9
2019-02-10T04:03:05.952Z,929.9
2019-02-10T04:04:05.858Z,929.8
2019-02-10T04:05:05.773Z,929.8
2019-02-10T04:06:05.665Z,929.7
2019-02-10T04:07:05.600Z,929.6
2019-02-10T04:08:05.514Z,929.9
2019-02-10T04:09:05.430Z,929.8
2019-02-10T04:10:05.347Z,929.8
2019-02-10T04:11:05.236Z,929.8
2019-02-10T04:12:05.183Z,929.9
2019-02-10T04:13:05.562Z,929.8
2019-02-10T04:14:05.474Z,930
2019-02-10T04:15:05.387Z,929.9
2019-02-10T04:16:05.282Z,929.9
2019-02-10T04:17:05.190Z,929.8
2019-02-10T04:18:05.154Z,929.7
2019-02-10T04:19:05.060Z,929.6
2019-02-10T04:20:04.942Z,929.7
2019-02-10T04:21:04.816Z,929.7
2019-02-10T04:22:04.709Z,929.7
2019-02-10T04:23:05.024Z,929.7
2019-02-10T04:24:04.932Z,929.7
2019-02-10T04:25:04.824Z,929.7
2019-02-10T04:26:04.749Z,929.7
2019-02-10T04:27:04.649Z,929.7
2019-02-10T04:28:04.547Z,929.7
2019-02-10T04:29:04.460Z,929.8
2019-02-10T04:30:04.356Z,929.6
2019-02-10T04:31:04.258Z,929.6
2019-02-10T04:32:04.141Z,929.6
2019-02-10T04:33:04.460Z,929.5
2019-02-10T04:34:04.375Z,929.5
2019-02-10T04:35:04.269Z,929.5
2019-02-10T04:36:04.147Z,929.5
2019-02-10T04:37:04.038Z,929.5
2019-02-10T04:38:03.916Z,929.4
2019-02-10T04:39:03.869Z,929.3
2019-02-10T04:40:03.745Z,929.4
2019-02-10T04:41:03.647Z,929.3
2019-02-10T04:42:03.548Z,929.3
2019-02-10T04:43:03.861Z,929.3
2019-02-10T04:44:03.782Z,929.2
2019-02-10T04:45:03.743Z,929.2
2019-02-10T04:46:03.639Z,929.2
2019-02-10T04:47:03.562Z,929.2
2019-02-10T04:48:03.472Z,929.1
2019-02-10T04:49:03.371Z,929.1
2019-02-10T04:50:03.307Z,929.1
2019-02-10T04:51:03.196Z,929.1
2019-02-10T04:52:03.089Z,929.1
2019-02-10T04:53:03.430Z,929
2019-02-10T04:54:03.341Z,929.1
2019-02-10T04:55:03.313Z,929
2019-02-10T04:56:03.220Z,929
2019-02-10T04:57:03.110Z,929
2019-02-10T04:58:03.000Z,929
2019-02-10T04:59:02.890Z,928.1
2019-02-10T05:00:02.799Z,928.9
2019-02-10T05:01:02.695Z,927.6
2019-02-10T05:02:02.617Z,928.8
2019-02-10T05:03:02.929Z,928.8
2019-02-10T05:04:02.827Z,928.3
2019-02-10T05:05:02.778Z,928.8
2019-02-10T05:06:02.683Z,928.7
2019-02-10T05:07:02.638Z,928.6
2019-02-10T05:08:02.520Z,928.6
2019-02-10T05:09:02.405Z,928.7
2019-02-10T05:10:02.319Z,928.6
2019-02-10T05:11:02.197Z,928.6
2019-02-10T05:12:02.096Z,928.6
2019-02-10T05:13:02.433Z,928.5
2019-02-10T05:14:02.315Z,928.5
2019-02-10T05:15:02.246Z,928.5
2019-02-10T05:16:02.129Z,928.4
2019-02-10T05:17:02.036Z,928.3
2019-02-10T05:18:02.005Z,928.3
2019-02-10T05:19:01.896Z,928.3
2019-02-10T05:20:01.863Z,928.3
2019-02-10T05:21:01.769Z,928.3
2019-02-10T05:22:01.643Z,928.3
2019-02-10T05:23:01.978Z,928.3
2019-02-10T05:24:04.656Z,928.3
2019-02-10T05:25:04.587Z,928.1
2019-02-10T05:26:04.487Z,928.2
2019-02-10T05:27:04.368Z,928.2
2019-02-10T05:28:04.265Z,928.2
2019-02-10T05:29:04.154Z,928.1
2019-02-10T05:30:04.078Z,928.2
2019-02-10T05:31:04.003Z,928.2
2019-02-10T05:32:03.926Z,926.6
2019-02-10T05:33:04.336Z,928
2019-02-10T05:34:04.215Z,928.2
2019-02-10T05:35:04.170Z,928.2
2019-02-10T05:36:04.068Z,928.1
2019-02-10T05:37:03.972Z,928
2019-02-10T05:38:05.546Z,928
2019-02-10T05:39:05.434Z,927.9
2019-02-10T05:40:05.396Z,927.8
2019-02-10T05:41:05.283Z,927.9
2019-02-10T05:42:05.206Z,927.7
2019-02-10T05:43:05.562Z,927.9
2019-02-10T05:44:05.445Z,927.9
2019-02-10T05:45:05.354Z,927.9
2019-02-10T05:46:05.265Z,927.8
2019-02-10T05:47:05.181Z,927.8
2019-02-10T05:48:05.133Z,927.8
2019-02-10T05:49:05.021Z,927.7
2019-02-10T05:50:04.905Z,927.7
2019-02-10T05:51:04.849Z,927.8
2019-02-10T05:52:04.756Z,927.6
2019-02-10T05:53:05.061Z,927.7
2019-02-10T05:54:04.966Z,927.6
2019-02-10T05:55:04.931Z,927.7
2019-02-10T05:56:04.921Z,927.6
2019-02-10T05:57:04.836Z,927.6
2019-02-10T05:58:04.749Z,927.6
2019-02-10T05:59:04.644Z,927.6
2019-02-10T06:00:04.576Z,927.6
2019-02-10T06:01:04.464Z,927.5
2019-02-10T06:02:04.405Z,927.4
2019-02-10T06:03:04.764Z,927.4
2019-02-10T06:04:04.672Z,927.4
2019-02-10T06:05:04.562Z,927.3
2019-02-10T06:06:04.458Z,927.2
2019-02-10T06:07:04.378Z,927.3
2019-02-10T06:08:14.436Z,927.2
2019-02-10T06:09:14.338Z,927.2
2019-02-10T06:10:14.248Z,927.2
2019-02-10T06:11:14.148Z,927.2
2019-02-10T06:12:14.054Z,927.2
2019-02-10T06:13:14.404Z,927.3
2019-02-10T06:14:14.328Z,927
2019-02-10T06:15:14.234Z,927
2019-02-10T06:16:14.129Z,927.2
2019-02-10T06:17:14.024Z,927.1
2019-02-10T06:18:13.936Z,927.2
2019-02-10T06:19:13.844Z,927
2019-02-10T06:20:13.760Z,927
2019-02-10T06:21:13.654Z,927.2
2019-02-10T06:22:13.578Z,925.8
2019-02-10T06:23:13.902Z,927.1
2019-02-10T06:24:13.841Z,927.1
2019-02-10T06:25:13.769Z,927
2019-02-10T06:26:13.647Z,927.1
2019-02-10T06:27:13.526Z,927.1
2019-02-10T06:28:13.405Z,927
2019-02-10T06:29:13.303Z,927
2019-02-10T06:30:13.265Z,927.1
2019-02-10T06:31:13.176Z,927.1
2019-02-10T06:32:13.067Z,927.1
2019-02-10T06:33:13.396Z,927.1
2019-02-10T06:34:13.284Z,927.1
2019-02-10T06:35:13.253Z,927.1
2019-02-10T06:36:13.153Z,926.9
2019-02-10T06:37:13.103Z,927.1
2019-02-10T06:38:23.170Z,927.2
2019-02-10T06:39:23.069Z,927.1
2019-02-10T06:40:22.977Z,927.1
2019-02-10T06:41:22.859Z,927
2019-02-10T06:42:22.760Z,927.1
2019-02-10T06:43:23.077Z,927
2019-02-10T06:44:22.975Z,927
2019-02-10T06:45:22.869Z,927
2019-02-10T06:46:22.748Z,926.9
2019-02-10T06:47:22.642Z,926.8
2019-02-10T06:48:22.540Z,927
2019-02-10T06:49:22.416Z,927
2019-02-10T06:50:22.309Z,927
2019-02-10T06:51:22.219Z,927
2019-02-10T06:52:22.092Z,927.1
2019-02-10T06:53:22.507Z,927.1
2019-02-10T06:54:22.411Z,927.1
2019-02-10T06:55:22.314Z,927.2
2019-02-10T06:56:22.201Z,927.2
2019-02-10T06:57:22.107Z,927.1
2019-02-10T06:58:21.999Z,927
2019-02-10T06:59:21.898Z,927
2019-02-10T07:00:21.784Z,927.2
2019-02-10T07:01:21.673Z,927.1
2019-02-10T07:02:21.563Z,927.1
2019-02-10T07:03:21.861Z,927.1
2019-02-10T07:04:21.754Z,927
2019-02-10T07:05:21.665Z,927
2019-02-10T07:06:21.547Z,925.7
2019-02-10T07:07:21.463Z,927
2019-02-10T07:08:21.343Z,926.9
2019-02-10T07:09:21.239Z,926.9
2019-02-10T07:10:21.126Z,927
2019-02-10T07:11:21.039Z,927
2019-02-10T07:12:20.931Z,927
2019-02-10T07:13:21.269Z,926.9
2019-02-10T07:14:21.157Z,926.8
2019-02-10T07:15:21.041Z,926.8
2019-02-10T07:16:20.980Z,926.8
2019-02-10T07:17:20.862Z,926.7
2019-02-10T07:18:20.755Z,926.7
2019-02-10T07:19:20.476Z,926.8
2019-02-10T07:20:20.219Z,926.7
2019-02-10T07:21:20.108Z,926.6
2019-02-10T07:22:20.025Z,926.6
2019-02-10T07:23:20.310Z,926.6
2019-02-10T07:24:20.193Z,926.6
2019-02-10T07:25:20.120Z,926.6
2019-02-10T07:26:20.013Z,926.6
2019-02-10T07:27:19.906Z,926.5
2019-02-10T07:28:19.835Z,926.3
2019-02-10T07:29:19.743Z,926.3
2019-02-10T07:30:19.625Z,926.4
2019-02-10T07:31:19.509Z,926.3
2019-02-10T07:32:19.397Z,926.3
2019-02-10T07:33:19.753Z,926.3
2019-02-10T07:34:19.669Z,926.2
2019-02-10T07:35:19.578Z,926.1
2019-02-10T07:36:19.473Z,926.1
2019-02-10T07:37:19.363Z,926.1
2019-02-10T07:38:19.249Z,926.2
2019-02-10T07:39:19.149Z,926.2
2019-02-10T07:40:19.117Z,926
2019-02-10T07:41:19.011Z,926
2019-02-10T07:42:18.905Z,926
2019-02-10T07:43:19.219Z,926.1
2019-02-10T07:44:19.122Z,926
2019-02-10T07:45:19.015Z,926.1
2019-02-10T07:46:18.943Z,925.8
2019-02-10T07:47:18.843Z,926
2019-02-10T07:48:18.789Z,926.1
2019-02-10T07:49:18.679Z,926.1
2019-02-10T07:50:18.584Z,926
2019-02-10T07:51:18.513Z,926.1
2019-02-10T07:52:18.398Z,926.1
2019-02-10T07:53:18.721Z,926
2019-02-10T07:54:18.618Z,925.9
2019-02-10T07:55:18.525Z,926
2019-02-10T07:56:18.438Z,926
2019-02-10T07:57:18.315Z,925.9
2019-02-10T07:58:18.219Z,925.8
2019-02-10T07:59:18.107Z,925.7
2019-02-10T08:00:17.989Z,925.8
2019-02-10T08:01:17.899Z,925.8
2019-02-10T08:02:17.778Z,925.7
2019-02-10T08:03:18.096Z,925.8
2019-02-10T08:04:18.050Z,925.8
2019-02-10T08:05:17.939Z,925.6
2019-02-10T08:06:17.853Z,925.8
2019-02-10T08:07:17.765Z,925.7
2019-02-10T08:08:17.710Z,925.7
2019-02-10T08:09:17.610Z,925.8
2019-02-10T08:10:17.515Z,925.7
2019-02-10T08:11:17.406Z,925.8
2019-02-10T08:12:17.304Z,925.7
2019-02-10T08:13:18.489Z,925.7
2019-02-10T08:14:18.366Z,925.8
2019-02-10T08:15:18.248Z,925.8
2019-02-10T08:16:18.140Z,925.8
2019-02-10T08:17:18.050Z,925.9
2019-02-10T08:18:17.954Z,925.8
2019-02-10T08:19:17.846Z,926
2019-02-10T08:20:17.751Z,925.9
2019-02-10T08:21:17.807Z,925.8
2019-02-10T08:22:17.734Z,925.7
2019-02-10T08:23:18.084Z,925.9
2019-02-10T08:24:17.974Z,925.7
2019-02-10T08:25:17.904Z,925.8
2019-02-10T08:26:17.829Z,925.9
2019-02-10T08:27:17.738Z,925.8
2019-02-10T08:28:17.658Z,925.8
2019-02-10T08:29:17.608Z,925.7
2019-02-10T08:30:17.535Z,926
2019-02-10T08:31:17.424Z,925.9
2019-02-10T08:32:17.323Z,925.8
2019-02-10T08:33:17.658Z,925.9
2019-02-10T08:34:17.588Z,925.9
2019-02-10T08:35:17.469Z,926
2019-02-10T08:36:17.374Z,925.8
2019-02-10T08:37:17.244Z,925.9
2019-02-10T08:38:17.145Z,925.8
2019-02-10T08:39:17.034Z,925.9
2019-02-10T08:40:16.938Z,925.8
2019-02-10T08:41:16.840Z,925.8
2019-02-10T08:42:16.737Z,925.8
2019-02-10T08:43:17.095Z,925.2
2019-02-10T08:44:16.999Z,925.2
2019-02-10T08:45:16.964Z,925.7
2019-02-10T08:46:16.851Z,925.7
2019-02-10T08:47:16.761Z,925.6
2019-02-10T08:48:16.646Z,925.7
2019-02-10T08:49:16.522Z,925.7
2019-02-10T08:50:16.431Z,925.6
2019-02-10T08:51:16.378Z,925.6
2019-02-10T08:52:16.282Z,925.6
2019-02-10T08:53:22.363Z,925.5
2019-02-10T08:54:22.267Z,925.4
2019-02-10T08:55:22.157Z,925.5
2019-02-10T08:56:22.074Z,925.4
2019-02-10T08:57:21.991Z,925.5
2019-02-10T08:58:21.881Z,925.4
2019-02-10T08:59:21.775Z,925.5
2019-02-10T09:00:21.700Z,924
2019-02-10T09:01:21.611Z,925.4
2019-02-10T09:02:21.520Z,925.4
2019-02-10T09:03:21.843Z,925.4
2019-02-10T09:04:21.754Z,925.3
2019-02-10T09:05:21.665Z,925.4
2019-02-10T09:06:21.589Z,925.3
2019-02-10T09:07:21.536Z,925.2
2019-02-10T09:08:21.431Z,925.2
2019-02-10T09:09:21.344Z,925.2
2019-02-10T09:10:21.254Z,925.1
2019-02-10T09:11:21.146Z,925.1
2019-02-10T09:12:21.065Z,924.9
2019-02-10T09:13:21.395Z,925.3
2019-02-10T09:14:21.316Z,925.3
2019-02-10T09:15:21.270Z,925.2
2019-02-10T09:16:21.157Z,925.2
2019-02-10T09:17:21.070Z,925.1
2019-02-10T09:18:20.974Z,925.2
2019-02-10T09:19:21.463Z,925.3
2019-02-10T09:20:21.359Z,925.3
2019-02-10T09:21:21.262Z,925
2019-02-10T09:22:21.173Z,925.1
2019-02-10T09:23:21.547Z,925.1
2019-02-10T09:24:21.439Z,925
2019-02-10T09:25:21.384Z,925.1
2019-02-10T09:26:21.274Z,925
2019-02-10T09:27:21.178Z,925.1
2019-02-10T09:28:21.068Z,925.1
2019-02-10T09:29:20.977Z,925
2019-02-10T09:30:20.858Z,924.9
2019-02-10T09:31:20.757Z,925
2019-02-10T09:32:20.658Z,925
2019-02-10T09:33:21.130Z,925
2019-02-10T09:34:21.018Z,924.9
2019-02-10T09:35:20.907Z,924.9
2019-02-10T09:36:20.805Z,924.8
2019-02-10T09:37:20.708Z,924.7
2019-02-10T09:38:20.608Z,924.7
2019-02-10T09:39:20.484Z,924.8
2019-02-10T09:40:20.410Z,924.7
2019-02-10T09:41:20.327Z,924.8
2019-02-10T09:42:20.204Z,924.7
2019-02-10T09:43:20.546Z,924.6
2019-02-10T09:44:20.442Z,924.7
2019-02-10T09:45:20.316Z,924.7
2019-02-10T09:46:20.202Z,924.6
2019-02-10T09:47:20.102Z,924.6
2019-02-10T09:48:19.992Z,924.4
2019-02-10T09:49:19.904Z,924.6
2019-02-10T09:50:19.850Z,924.7
2019-02-10T09:51:19.784Z,924.5
2019-02-10T09:52:19.674Z,924.6
2019-02-10T09:53:20.038Z,924.6
2019-02-10T09:54:19.948Z,924.7
2019-02-10T09:55:19.886Z,924.7
2019-02-10T09:56:19.792Z,924.7
2019-02-10T09:57:19.697Z,924.6
2019-02-10T09:58:19.611Z,924.6
2019-02-10T09:59:19.559Z,924.4
2019-02-10T10:00:19.481Z,924.5
2019-02-10T10:01:19.435Z,924.5
2019-02-10T10:02:19.385Z,924.5
2019-02-10T10:03:19.728Z,924.5
2019-02-10T10:04:19.660Z,924.3
2019-02-10T10:05:19.574Z,924.3
2019-02-10T10:06:19.519Z,924.4
2019-02-10T10:07:19.414Z,924.4
2019-02-10T10:08:19.316Z,924.3
2019-02-10T10:09:20.575Z,924.3
2019-02-10T10:10:20.489Z,924.3
2019-02-10T10:11:20.397Z,924.2
2019-02-10T10:12:20.317Z,924.3
2019-02-10T10:13:20.709Z,924.3
2019-02-10T10:14:20.703Z,924.2
2019-02-10T10:15:20.579Z,924.2
2019-02-10T10:16:20.499Z,924.1
2019-02-10T10:17:20.393Z,924.1
2019-02-10T10:18:20.290Z,924.1
2019-02-10T10:19:20.194Z,924.1
2019-02-10T10:20:20.089Z,922.7
2019-02-10T10:21:20.032Z,924.1
2019-02-10T10:22:19.922Z,924.1
2019-02-10T10:23:20.248Z,923.9
2019-02-10T10:24:20.156Z,923.9
2019-02-10T10:25:20.049Z,923.9
2019-02-10T10:26:19.943Z,923.8
2019-02-10T10:27:19.858Z,923.8
2019-02-10T10:28:19.808Z,923.7
2019-02-10T10:29:19.702Z,923.8
2019-02-10T10:30:19.620Z,923.9
2019-02-10T10:31:19.514Z,923.9
2019-02-10T10:32:19.441Z,923.8
2019-02-10T10:33:19.778Z,923.2
2019-02-10T10:34:19.689Z,923.1
2019-02-10T10:35:22.235Z,923.7
2019-02-10T10:36:22.131Z,923.6
2019-02-10T10:37:22.069Z,923.7
2019-02-10T10:38:22.045Z,923.6
2019-02-10T10:39:28.394Z,923.6
2019-02-10T10:40:28.335Z,923.6
2019-02-10T10:41:28.242Z,923.5
2019-02-10T10:42:28.169Z,923.5
2019-02-10T10:43:28.509Z,923.5
2019-02-10T10:44:28.430Z,923.3
2019-02-10T10:45:28.351Z,923.4
2019-02-10T10:46:31.007Z,923.2
2019-02-10T10:47:30.931Z,923.2
2019-02-10T10:48:30.833Z,923.2
2019-02-10T10:49:30.788Z,923.2
2019-02-10T10:50:30.697Z,923.1
2019-02-10T10:51:30.591Z,923.1
2019-02-10T10:52:30.507Z,923.1
2019-02-10T10:53:30.895Z,923.1
2019-02-10T10:54:30.798Z,923
2019-02-10T10:55:30.696Z,923
2019-02-10T10:56:30.603Z,922.9
2019-02-10T10:57:30.558Z,922.9
2019-02-10T10:58:30.463Z,922.9
2019-02-10T10:59:30.391Z,923
2019-02-10T11:00:30.279Z,922.8
2019-02-10T11:01:30.167Z,923
2019-02-10T11:02:30.056Z,922.9
2019-02-10T11:03:30.375Z,922.8
2019-02-10T11:04:30.329Z,922.7
2019-02-10T11:05:30.229Z,922.7
2019-02-10T11:06:30.131Z,921.5
2019-02-10T11:07:30.025Z,922.7
2019-02-10T11:08:29.935Z,922.5
2019-02-10T11:09:36.579Z,922.6
2019-02-10T11:10:36.483Z,922.5
2019-02-10T11:11:36.371Z,922.6
2019-02-10T11:12:36.264Z,922.5
2019-02-10T11:13:36.625Z,922.3
2019-02-10T11:14:36.524Z,922.3
2019-02-10T11:15:36.428Z,922.4
2019-02-10T11:16:36.335Z,922.4
2019-02-10T11:17:36.238Z,922.3
2019-02-10T11:18:36.151Z,922.3
2019-02-10T11:19:36.076Z,922.3
2019-02-10T11:20:35.978Z,922.3
2019-02-10T11:21:35.895Z,922.4
2019-02-10T11:22:35.793Z,922.4
2019-02-10T11:23:36.112Z,922.3
2019-02-10T11:24:36.025Z,922.2
2019-02-10T11:25:35.945Z,922.2
2019-02-10T11:26:35.835Z,922.2
2019-02-10T11:27:35.716Z,922.2
2019-02-10T11:28:35.618Z,922.2
2019-02-10T11:29:35.525Z,922.2
2019-02-10T11:30:35.439Z,922.2
2019-02-10T11:31:35.329Z,922.1
2019-02-10T11:32:35.222Z,922.1
2019-02-10T11:33:35.548Z,922.1
2019-02-10T11:34:35.450Z,920.9
2019-02-10T11:35:35.356Z,922
2019-02-10T11:36:35.245Z,921.9
2019-02-10T11:37:35.120Z,922
2019-02-10T11:38:35.015Z,922
2019-02-10T11:39:34.905Z,921.9
2019-02-10T11:40:34.780Z,921.9
2019-02-10T11:41:34.704Z,921.9
2019-02-10T11:42:34.635Z,921.9
2019-02-10T11:43:35.012Z,921.8
2019-02-10T11:44:34.904Z,921.8
2019-02-10T11:45:34.791Z,921.7
2019-02-10T11:46:34.734Z,921.7
2019-02-10T11:47:34.622Z,921.7
2019-02-10T11:48:34.533Z,921.7
2019-02-10T11:49:34.432Z,921.8
2019-02-10T11:50:34.320Z,920.9
2019-02-10T11:51:34.219Z,921.5
2019-02-10T11:52:34.125Z,921.5
2019-02-10T11:53:34.464Z,921.5
2019-02-10T11:54:34.419Z,921.5
2019-02-10T11:55:34.313Z,921.5
2019-02-10T11:56:34.220Z,921.3
2019-02-10T11:57:34.135Z,921.4
2019-02-10T11:58:34.039Z,921.4
2019-02-10T11:59:33.946Z,921.4
2019-02-10T12:00:33.838Z,921.3
2019-02-10T12:01:33.729Z,921.2
2019-02-10T12:02:39.006Z,921.2
2019-02-10T12:03:39.372Z,921.2
2019-02-10T12:04:39.270Z,921.3
2019-02-10T12:05:39.169Z,921.3
2019-02-10T12:06:39.070Z,921.4
2019-02-10T12:07:40.031Z,921.4
2019-02-10T12:08:39.946Z,921.3
2019-02-10T12:09:39.852Z,921.2
2019-02-10T12:10:39.752Z,921.2
2019-02-10T12:11:39.652Z,921.2
2019-02-10T12:12:39.551Z,921.2
2019-02-10T12:13:41.514Z,921.2
2019-02-10T12:14:41.450Z,920.6
2019-02-10T12:15:41.381Z,921.2
2019-02-10T12:16:41.269Z,921.2
2019-02-10T12:17:41.176Z,921.2
2019-02-10T12:18:41.123Z,921.1
2019-02-10T12:19:41.010Z,921.2
2019-02-10T12:20:40.896Z,921.2
2019-02-10T12:21:40.798Z,921.1
2019-02-10T12:22:40.689Z,921.1
2019-02-10T12:23:41.030Z,921
2019-02-10T12:24:40.979Z,921
2019-02-10T12:25:40.890Z,920.9
2019-02-10T12:26:40.846Z,921
2019-02-10T12:27:40.737Z,920.9
2019-02-10T12:28:40.620Z,920.3
2019-02-10T12:29:40.542Z,920.8
2019-02-10T12:30:40.436Z,920.8
2019-02-10T12:31:40.337Z,919.6
2019-02-10T12:32:40.239Z,920.7
2019-02-10T12:33:40.626Z,920.7
2019-02-10T12:34:40.553Z,920.7
2019-02-10T12:35:40.459Z,920.6
2019-02-10T12:36:40.390Z,920.7
2019-02-10T12:37:40.317Z,920.7
2019-02-10T12:38:40.209Z,920.5
2019-02-10T12:39:40.118Z,920.5
2019-02-10T12:40:40.039Z,920.5
2019-02-10T12:41:40.028Z,920.5
2019-02-10T12:42:39.955Z,920.4
2019-02-10T12:43:40.292Z,920.3
2019-02-10T12:44:40.193Z,920.3
2019-02-10T12:45:40.107Z,920.2
2019-02-10T12:46:40.009Z,920.3
2019-02-10T12:47:39.918Z,920.3
2019-02-10T12:48:39.804Z,920.3
2019-02-10T12:49:39.689Z,920.2
2019-02-10T12:50:39.611Z,920.2
2019-02-10T12:51:39.502Z,920.2
2019-02-10T12:52:39.402Z,920.2
2019-02-10T12:53:39.735Z,920.2
2019-02-10T12:54:39.609Z,920.2
2019-02-10T12:55:39.531Z,920.1
2019-02-10T12:56:39.424Z,920.1
2019-02-10T12:57:39.346Z,920
2019-02-10T12:58:39.231Z,920